createdAt,value
2022-12-05T00:02:09.540Z,101006.72
2022-12-05T00:04:37.973Z,101011.00
2022-12-05T00:07:08.545Z,101011.72
2022-12-05T00:09:37.205Z,101016.22
2022-12-05T00:12:05.832Z,101017.06
2022-12-05T00:14:34.077Z,101018.78
2022-12-05T00:17:02.709Z,101019.53
2022-12-05T00:19:31.166Z,101023.91
2022-12-05T00:22:00.969Z,101022.00
2022-12-05T00:24:30.851Z,101023.78
2022-12-05T00:26:58.966Z,101020.41
2022-12-05T00:29:27.619Z,101024.66
2022-12-05T00:31:56.004Z,101027.13
2022-12-05T00:34:24.395Z,101027.97
2022-12-05T00:36:52.850Z,101024.44
2022-12-05T00:39:21.952Z,101024.44
2022-12-05T00:41:51.906Z,101024.34
2022-12-05T00:44:20.301Z,101026.06
2022-12-05T00:46:48.570Z,101032.47
2022-12-05T00:49:16.916Z,101032.25
2022-12-05T00:51:45.294Z,101032.97
2022-12-05T00:54:15.405Z,101051.69
2022-12-05T00:56:44.275Z,101054.47
2022-12-05T00:59:17.098Z,101051.50
2022-12-05T01:01:46.059Z,101059.41
2022-12-05T01:04:16.299Z,101071.91
2022-12-05T01:06:44.560Z,101062.06
2022-12-05T01:09:14.360Z,101064.53
2022-12-05T01:11:42.778Z,101060.25
2022-12-05T01:14:10.930Z,101066.31
2022-12-05T01:16:41.094Z,101065.38
2022-12-05T01:19:12.060Z,101068.16
2022-12-05T01:21:40.208Z,101068.81
2022-12-05T01:24:08.723Z,101067.19
2022-12-05T01:26:37.011Z,101071.47
2022-12-05T01:29:05.653Z,101075.63
2022-12-05T01:31:35.057Z,101071.25
2022-12-05T01:34:06.018Z,101075.84
2022-12-05T01:36:35.169Z,101072.22
2022-12-05T01:39:03.461Z,101065.91
2022-12-05T01:41:33.566Z,101067.50
2022-12-05T01:44:03.415Z,101063.84
2022-12-05T01:46:33.749Z,101065.47
2022-12-05T01:49:08.479Z,101060.13
2022-12-05T01:51:37.706Z,101060.84
2022-12-05T01:54:06.550Z,101058.94
2022-12-05T01:56:36.307Z,101062.34
2022-12-05T01:59:05.862Z,101060.66
2022-12-05T02:01:34.169Z,101060.66
2022-12-05T02:04:03.211Z,101062.34
2022-12-05T02:06:33.474Z,101059.47
2022-12-05T02:09:01.731Z,101063.59
2022-12-05T02:11:31.500Z,101066.81
2022-12-05T02:14:17.571Z,101067.34
2022-12-05T02:16:51.640Z,101066.16
2022-12-05T02:19:31.293Z,101070.41
2022-12-05T02:22:17.509Z,101071.88
2022-12-05T02:25:00.532Z,101077.25
2022-12-05T02:27:37.527Z,101073.38
2022-12-05T02:30:09.069Z,101073.50
2022-12-05T02:32:45.661Z,101076.81
2022-12-05T02:35:18.074Z,101082.25
2022-12-05T02:37:52.374Z,101089.19
2022-12-05T02:40:25.451Z,101088.13
2022-12-05T02:43:00.582Z,101076.69
2022-12-05T02:45:32.829Z,101085.44
2022-12-05T02:48:01.481Z,101094.44
2022-12-05T02:50:32.462Z,101094.56
2022-12-05T02:53:03.741Z,101089.19
2022-12-05T02:55:32.934Z,101088.13
2022-12-05T02:58:05.225Z,101088.13
2022-12-05T03:00:35.940Z,101088.34
2022-12-05T03:03:12.007Z,101088.34
2022-12-05T03:05:42.021Z,101091.03
2022-12-05T03:08:14.173Z,101088.34
2022-12-05T03:10:44.256Z,101091.03
2022-12-05T03:13:15.641Z,101088.25
2022-12-05T03:15:46.962Z,101087.41
2022-12-05T03:18:18.881Z,101088.34
2022-12-05T03:20:48.733Z,101097.34
2022-12-05T03:23:20.106Z,101101.09
2022-12-05T03:25:55.970Z,101098.66
2022-12-05T03:28:26.670Z,101106.78
2022-12-05T03:30:57.674Z,101103.16
2022-12-05T03:33:29.330Z,101108.28
2022-12-05T03:36:01.164Z,101108.50
2022-12-05T03:38:37.054Z,101111.19
2022-12-05T03:41:09.680Z,101112.56
2022-12-05T03:43:42.572Z,101114.47
2022-12-05T03:46:14.064Z,101113.63
2022-12-05T03:48:48.228Z,101117.25
2022-12-05T03:51:18.298Z,101112.78
2022-12-05T03:53:49.834Z,101116.84
2022-12-05T03:56:22.403Z,101111.47
2022-12-05T03:58:55.375Z,101099.28
2022-12-05T04:01:27.208Z,101102.69
2022-12-05T04:03:57.467Z,101096.38
2022-12-05T04:06:28.359Z,101098.09
2022-12-05T04:08:58.879Z,101100.97
2022-12-05T04:11:28.919Z,101100.38
2022-12-05T04:14:01.979Z,101103.06
2022-12-05T04:16:52.638Z,101104.47
2022-12-05T04:19:25.615Z,101103.63
2022-12-05T04:21:53.660Z,101110.19
2022-12-05T04:24:41.435Z,101104.53
2022-12-05T04:27:13.506Z,101110.50
2022-12-05T04:29:46.313Z,101106.31
2022-12-05T04:32:15.887Z,101104.09
2022-12-05T04:34:47.799Z,101097.25
2022-12-05T04:37:19.736Z,101100.91
2022-12-05T04:39:50.169Z,101107.31
2022-12-05T04:42:20.919Z,101113.50
2022-12-05T04:44:51.702Z,101112.66
2022-12-05T04:47:23.424Z,101116.94
2022-12-05T04:49:53.963Z,101123.97
2022-12-05T04:52:23.398Z,101122.06
2022-12-05T04:54:54.511Z,101126.44
2022-12-05T04:57:25.983Z,101130.59
2022-12-05T04:59:56.763Z,101134.88
2022-12-05T05:02:29.793Z,101135.53
2022-12-05T05:05:00.226Z,101138.09
2022-12-05T05:07:28.533Z,101146.66
2022-12-05T05:09:57.391Z,101144.84
2022-12-05T05:12:26.068Z,101146.53
2022-12-05T05:14:54.133Z,101151.59
2022-12-05T05:17:22.247Z,101152.22
2022-12-05T05:19:51.976Z,101154.78
2022-12-05T05:22:20.180Z,101145.69
2022-12-05T05:24:48.498Z,101149.97
2022-12-05T05:27:16.680Z,101140.88
2022-12-05T05:29:45.219Z,101163.13
2022-12-05T05:32:13.494Z,101162.56
2022-12-05T05:34:41.720Z,101163.34
2022-12-05T05:37:11.382Z,101167.41
2022-12-05T05:39:39.496Z,101166.34
2022-12-05T05:42:07.589Z,101164.28
2022-12-05T05:44:35.777Z,101163.34
2022-12-05T05:47:04.128Z,101162.38
2022-12-05T05:49:32.275Z,101164.28
2022-12-05T05:52:00.480Z,101164.28
2022-12-05T05:54:30.597Z,101160.13
2022-12-05T05:56:58.731Z,101161.59
2022-12-05T05:59:26.806Z,101160.88
2022-12-05T06:01:55.190Z,101161.00
2022-12-05T06:04:23.572Z,101165.91
2022-12-05T06:06:51.958Z,101160.78
2022-12-05T06:09:20.760Z,101174.78
2022-12-05T06:11:50.371Z,101164.09
2022-12-05T06:14:18.799Z,101167.41
2022-12-05T06:16:46.927Z,101169.53
2022-12-05T06:19:15.230Z,101167.28
2022-12-05T06:21:43.507Z,101168.69
2022-12-05T06:24:11.640Z,101171.69
2022-12-05T06:26:39.779Z,101179.34
2022-12-05T06:29:09.469Z,101173.56
2022-12-05T06:31:37.875Z,101176.44
2022-12-05T06:34:06.242Z,101172.03
2022-12-05T06:36:34.538Z,101170.53
2022-12-05T06:39:02.935Z,101172.25
2022-12-05T06:41:31.024Z,101181.22
2022-12-05T06:44:02.136Z,101170.97
2022-12-05T06:46:32.231Z,101180.13
2022-12-05T06:49:00.743Z,101173.28
2022-12-05T06:51:28.902Z,101186.63
2022-12-05T06:53:57.045Z,101180.19
2022-12-05T06:56:25.445Z,101195.66
2022-12-05T06:58:55.809Z,101192.25
2022-12-05T07:01:39.343Z,101200.66
2022-12-05T07:04:11.349Z,101197.75
2022-12-05T07:06:40.228Z,101197.75
2022-12-05T07:09:08.818Z,101207.16
2022-12-05T07:11:37.117Z,101206.84
2022-12-05T07:14:14.682Z,101218.00
2022-12-05T07:16:47.706Z,101213.19
2022-12-05T07:19:17.641Z,101227.53
2022-12-05T07:21:45.769Z,101225.81
2022-12-05T07:24:13.798Z,101223.97
2022-12-05T07:26:41.965Z,101225.41
2022-12-05T07:29:11.262Z,101230.53
2022-12-05T07:31:39.837Z,101234.91
2022-12-05T07:34:08.155Z,101233.75
2022-12-05T07:36:37.672Z,101233.34
2022-12-05T07:39:06.095Z,101243.81
2022-12-05T07:41:35.847Z,101237.00
2022-12-05T07:44:08.972Z,101242.53
2022-12-05T07:46:37.085Z,101245.97
2022-12-05T07:49:05.217Z,101247.69
2022-12-05T07:51:33.808Z,101253.03
2022-12-05T07:54:03.572Z,101252.94
2022-12-05T07:56:31.762Z,101263.50
2022-12-05T07:58:59.864Z,101261.28
2022-12-05T08:01:29.972Z,101270.06
2022-12-05T08:03:59.576Z,101265.91
2022-12-05T08:06:29.466Z,101276.00
2022-12-05T08:08:58.905Z,101274.53
2022-12-05T08:11:30.250Z,101280.41
2022-12-05T08:13:59.161Z,101286.78
2022-12-05T08:16:28.129Z,101295.31
2022-12-05T08:18:57.272Z,101300.25
2022-12-05T08:21:26.455Z,101300.06
2022-12-05T08:23:54.664Z,101308.59
2022-12-05T08:26:24.720Z,101304.97
2022-12-05T08:28:54.840Z,101306.47
2022-12-05T08:31:24.534Z,101306.28
2022-12-05T08:33:58.803Z,101306.94
2022-12-05T08:36:28.389Z,101308.63
2022-12-05T08:38:57.897Z,101306.28
2022-12-05T08:41:28.899Z,101312.88
2022-12-05T08:43:58.792Z,101312.06
2022-12-05T08:46:27.330Z,101317.06
2022-12-05T08:48:55.482Z,101317.47
2022-12-05T08:51:23.707Z,101322.25
2022-12-05T08:53:52.009Z,101322.38
2022-12-05T08:56:25.057Z,101318.63
2022-12-05T08:58:58.506Z,101313.94
2022-12-05T09:01:33.456Z,101322.06
2022-12-05T09:04:02.566Z,101329.13
2022-12-05T09:06:31.522Z,101328.06
2022-12-05T09:09:00.700Z,101327.75
2022-12-05T09:11:30.757Z,101327.44
2022-12-05T09:14:00.144Z,101321.66
2022-12-05T09:16:36.551Z,101329.41
2022-12-05T09:19:12.380Z,101331.63
2022-12-05T09:21:40.731Z,101336.44
2022-12-05T09:24:09.394Z,101333.47
2022-12-05T09:26:37.495Z,101338.50
2022-12-05T09:29:07.157Z,101342.69
2022-12-05T09:31:37.276Z,101347.16
2022-12-05T09:34:06.111Z,101338.97
2022-12-05T09:36:35.647Z,101337.00
2022-12-05T09:39:05.170Z,101342.69
2022-12-05T09:42:02.958Z,101347.00
2022-12-05T09:44:37.780Z,101347.28
2022-12-05T09:47:10.541Z,101348.78
2022-12-05T09:49:41.421Z,101341.41
2022-12-05T09:52:12.610Z,101337.78
2022-12-05T09:54:40.864Z,101341.41
2022-12-05T09:57:11.416Z,101341.81
2022-12-05T09:59:39.641Z,101337.34
2022-12-05T10:02:23.562Z,101347.94
2022-12-05T10:05:00.602Z,101339.25
2022-12-05T10:07:36.147Z,101342.81
2022-12-05T10:10:20.280Z,101336.38
2022-12-05T10:12:56.397Z,101339.69
2022-12-05T10:15:28.037Z,101335.28
2022-12-05T10:17:59.463Z,101332.44
2022-12-05T10:20:30.136Z,101332.81
2022-12-05T10:23:02.185Z,101341.47
2022-12-05T10:25:33.006Z,101333.84
2022-12-05T10:28:02.379Z,101337.47
2022-12-05T10:30:31.548Z,101333.91
2022-12-05T10:33:01.840Z,101335.75
2022-12-05T10:35:35.805Z,101333.78
2022-12-05T10:38:31.148Z,101333.19
2022-12-05T10:41:01.134Z,101333.78
2022-12-05T10:43:31.134Z,101324.78
2022-12-05T10:46:00.012Z,101326.53
2022-12-05T10:48:28.350Z,101322.66
2022-12-05T10:50:57.740Z,101326.06
2022-12-05T10:53:27.554Z,101328.00
2022-12-05T10:56:29.197Z,101326.38
2022-12-05T10:58:55.867Z,101321.97
2022-12-05T11:01:25.197Z,101322.94
2022-12-05T11:03:57.471Z,101317.75
2022-12-05T11:06:26.984Z,101324.47
2022-12-05T11:09:04.519Z,101315.34
2022-12-05T11:11:35.457Z,101319.94
2022-12-05T11:14:05.293Z,101319.22
2022-12-05T11:16:34.868Z,101313.69
2022-12-05T11:19:29.472Z,101315.97
2022-12-05T11:21:57.994Z,101310.66
2022-12-05T11:24:28.637Z,101314.13
2022-12-05T11:26:58.379Z,101309.22
2022-12-05T11:29:31.444Z,101313.88
2022-12-05T11:32:00.128Z,101297.97
2022-12-05T11:34:31.199Z,101303.97
2022-12-05T11:37:01.612Z,101302.59
2022-12-05T11:39:29.904Z,101306.03
2022-12-05T11:42:25.075Z,101295.38
2022-12-05T11:45:18.117Z,101282.78
2022-12-05T11:47:55.216Z,101276.47
2022-12-05T11:50:29.448Z,101271.94
2022-12-05T11:53:02.087Z,101269.75
2022-12-05T11:55:44.523Z,101277.75
2022-12-05T11:58:38.691Z,101281.88
2022-12-05T12:01:13.680Z,101273.91
2022-12-05T12:03:48.792Z,101270.97
2022-12-05T12:06:24.278Z,101260.78
2022-12-05T12:08:59.548Z,101260.69
2022-12-05T12:11:31.312Z,101260.69
2022-12-05T12:14:03.058Z,101256.94
2022-12-05T12:16:37.955Z,101256.31
2022-12-05T12:19:22.051Z,101261.44
2022-12-05T12:22:01.467Z,101263.66
2022-12-05T12:24:38.571Z,101250.19
2022-12-05T12:27:15.041Z,101252.16
2022-12-05T12:29:49.337Z,101246.72
2022-12-05T12:32:26.138Z,101246.13
2022-12-05T12:35:05.226Z,101244.06
2022-12-05T12:37:39.445Z,101243.41
2022-12-05T12:40:14.764Z,101241.28
2022-12-05T12:42:49.799Z,101241.03
2022-12-05T12:45:41.795Z,101229.09
2022-12-05T12:48:17.191Z,101240.69
2022-12-05T12:50:46.698Z,101229.25
2022-12-05T12:53:39.278Z,101228.28
2022-12-05T12:56:12.112Z,101233.03
2022-12-05T12:58:45.947Z,101235.00
2022-12-05T13:01:23.910Z,101221.09
2022-12-05T13:04:02.529Z,101230.88
2022-12-05T13:06:33.687Z,101239.75
2022-12-05T13:09:03.824Z,101233.09
2022-12-05T13:11:36.694Z,101233.28
2022-12-05T13:14:05.315Z,101241.72
2022-12-05T13:16:37.989Z,101248.09
2022-12-05T13:19:16.814Z,101246.16
2022-12-05T13:21:45.279Z,101246.31
2022-12-05T13:24:14.505Z,101248.03
2022-12-05T13:26:47.345Z,101245.69
2022-12-05T13:29:20.898Z,101256.44
2022-12-05T13:31:49.074Z,101254.50
2022-12-05T13:34:36.251Z,101261.06
2022-12-05T13:37:30.575Z,101255.69
2022-12-05T13:40:16.743Z,101255.69
2022-12-05T13:42:45.560Z,101257.16
2022-12-05T13:45:19.263Z,101258.38
2022-12-05T13:47:53.625Z,101259.44
2022-12-05T13:50:28.813Z,101257.69
2022-12-05T13:53:00.787Z,101255.50
2022-12-05T13:55:35.658Z,101258.88
2022-12-05T13:58:04.895Z,101249.38
2022-12-05T14:00:35.134Z,101242.31
2022-12-05T14:03:08.011Z,101243.28
2022-12-05T14:06:00.161Z,101240.09
2022-12-05T14:08:49.469Z,101234.63
2022-12-05T14:11:19.183Z,101228.31
2022-12-05T14:13:47.605Z,101232.59
2022-12-05T14:16:49.660Z,101234.44
2022-12-05T14:19:37.604Z,101236.13
2022-12-05T14:22:15.655Z,101235.94
2022-12-05T14:24:50.192Z,101239.34
2022-12-05T14:27:22.974Z,101229.81
2022-12-05T14:29:57.703Z,101237.88
2022-12-05T14:32:29.194Z,101235.06
2022-12-05T14:34:59.393Z,101228.03
2022-12-05T14:37:30.193Z,101234.50
2022-12-05T14:40:00.113Z,101229.50
2022-12-05T14:42:36.766Z,101224.47
2022-12-05T14:45:22.638Z,101224.47
2022-12-05T14:47:52.748Z,101232.31
2022-12-05T14:50:25.885Z,101234.25
2022-12-05T14:53:12.695Z,101238.78
2022-12-05T14:55:40.992Z,101239.38
2022-12-05T14:58:17.645Z,101238.53
2022-12-05T15:00:48.283Z,101247.09
2022-12-05T15:03:24.439Z,101253.31
2022-12-05T15:05:52.840Z,101229.50
2022-12-05T15:08:21.631Z,101241.34
2022-12-05T15:10:51.554Z,101237.41
2022-12-05T15:13:24.840Z,101232.50
2022-12-05T15:15:58.393Z,101239.47
2022-12-05T15:18:29.459Z,101236.53
2022-12-05T15:20:58.902Z,101245.84
2022-12-05T15:23:42.779Z,101246.69
2022-12-05T15:26:45.093Z,101240.47
2022-12-05T15:29:08.320Z,101240.34
2022-12-05T15:31:37.747Z,101246.69
2022-12-05T15:34:08.649Z,101245.72
2022-12-05T15:36:38.375Z,101252.03
2022-12-05T15:39:07.423Z,101254.72
2022-12-05T15:41:35.706Z,101245.19
2022-12-05T15:44:06.573Z,101250.81
2022-12-05T15:46:36.620Z,101258.38
2022-12-05T15:49:17.725Z,101254.34
2022-12-05T15:51:47.806Z,101265.94
2022-12-05T15:54:18.190Z,101262.75
2022-12-05T15:56:49.433Z,101265.56
2022-12-05T15:59:20.155Z,101268.34
2022-12-05T16:01:52.865Z,101261.75
2022-12-05T16:04:29.403Z,101273.94
2022-12-05T16:07:00.608Z,101263.56
2022-12-05T16:09:32.712Z,101273.31
2022-12-05T16:12:02.439Z,101270.00
2022-12-05T16:17:22.749Z,101284.88
2022-12-05T16:19:51.741Z,101286.78
2022-12-05T16:22:23.595Z,101294.13
2022-12-05T16:24:56.514Z,101301.03
2022-12-05T16:27:26.019Z,101301.28
2022-12-05T16:30:11.129Z,101300.63
2022-12-05T16:32:42.040Z,101307.84
2022-12-05T16:35:29.119Z,101308.78
2022-12-05T16:38:04.098Z,101319.75
2022-12-05T16:40:32.276Z,101316.31
2022-12-05T16:43:03.881Z,101317.63
2022-12-05T16:45:39.822Z,101324.69
2022-12-05T16:48:18.334Z,101326.00
2022-12-05T16:50:47.353Z,101325.16
2022-12-05T16:53:23.785Z,101325.41
2022-12-05T16:55:52.892Z,101330.75
2022-12-05T16:58:22.679Z,101330.00
2022-12-05T17:00:51.286Z,101335.59
2022-12-05T17:03:36.648Z,101345.69
2022-12-05T17:06:05.180Z,101350.94
2022-12-05T17:08:33.598Z,101348.16
2022-12-05T17:11:03.838Z,101331.31
2022-12-05T17:13:32.379Z,101345.47
2022-12-05T17:16:00.757Z,101335.72
2022-12-05T17:18:32.081Z,101349.34
2022-12-05T17:21:02.110Z,101351.59
2022-12-05T17:23:30.216Z,101346.47
2022-12-05T17:25:59.483Z,101345.50
2022-12-05T17:28:27.715Z,101343.91
2022-12-05T17:30:56.158Z,101344.00
2022-12-05T17:33:24.304Z,101344.97
2022-12-05T17:35:54.093Z,101360.81
2022-12-05T17:38:22.227Z,101359.75
2022-12-05T17:40:50.350Z,101363.28
2022-12-05T17:43:24.803Z,101350.97
2022-12-05T17:45:54.895Z,101352.16
2022-12-05T17:48:24.028Z,101367.09
2022-12-05T17:50:53.973Z,101367.28
2022-12-05T17:53:22.654Z,101368.28
2022-12-05T17:55:51.503Z,101365.03
2022-12-05T17:58:19.590Z,101366.22
2022-12-05T18:00:48.563Z,101373.53
2022-12-05T18:03:18.003Z,101376.72
2022-12-05T18:05:46.224Z,101371.16
2022-12-05T18:08:17.129Z,101381.97
2022-12-05T18:10:46.213Z,101382.19
2022-12-05T18:13:17.474Z,101387.88
2022-12-05T18:15:47.436Z,101384.66
2022-12-05T18:18:17.613Z,101387.66
2022-12-05T18:20:45.897Z,101382.31
2022-12-05T18:23:17.081Z,101382.41
2022-12-05T18:25:47.236Z,101384.25
2022-12-05T18:28:17.931Z,101391.84
2022-12-05T18:30:48.005Z,101389.16
2022-12-05T18:33:16.349Z,101394.72
2022-12-05T18:35:45.767Z,101394.28
2022-12-05T18:38:14.282Z,101390.22
2022-12-05T18:40:44.067Z,101397.41
2022-12-05T18:43:12.505Z,101405.66
2022-12-05T18:45:41.505Z,101413.56
2022-12-05T18:48:37.706Z,101405.19
2022-12-05T18:51:07.108Z,101401.56
2022-12-05T18:53:35.337Z,101413.78
2022-12-05T18:56:22.212Z,101412.06
2022-12-05T18:58:55.667Z,101412.78
2022-12-05T19:01:24.089Z,101407.22
2022-12-05T19:03:52.697Z,101405.50
2022-12-05T19:06:22.526Z,101410.22
2022-12-05T19:08:51.320Z,101412.06
2022-12-05T19:11:21.442Z,101412.06
2022-12-05T19:13:49.609Z,101415.69
2022-12-05T19:16:18.804Z,101412.28
2022-12-05T19:18:47.410Z,101416.56
2022-12-05T19:21:15.578Z,101415.91
2022-12-05T19:23:43.846Z,101417.09
2022-12-05T19:26:12.085Z,101413.91
2022-12-05T19:28:42.259Z,101413.38
2022-12-05T19:31:11.242Z,101413.03
2022-12-05T19:33:41.064Z,101415.31
2022-12-05T19:36:11.739Z,101406.50
2022-12-05T19:38:40.600Z,101411.25
2022-12-05T19:41:09.508Z,101407.19
2022-12-05T19:43:38.164Z,101423.25
2022-12-05T19:46:08.894Z,101425.81
2022-12-05T19:48:37.487Z,101422.16
2022-12-05T19:51:06.934Z,101417.78
2022-12-05T19:53:37.877Z,101424.31
2022-12-05T19:56:07.335Z,101428.59
2022-12-05T19:58:36.188Z,101427.63
2022-12-05T20:01:10.081Z,101426.88
2022-12-05T20:03:39.284Z,101423.66
2022-12-05T20:06:09.302Z,101425.81
2022-12-05T20:08:38.218Z,101426.78
2022-12-05T20:11:06.745Z,101437.16
2022-12-05T20:13:46.604Z,101432.22
2022-12-05T20:16:18.674Z,101425.47
2022-12-05T20:18:47.252Z,101430.38
2022-12-05T20:21:16.565Z,101429.88
2022-12-05T20:23:45.054Z,101435.59
2022-12-05T20:26:14.604Z,101434.31
2022-12-05T20:28:42.696Z,101440.75
2022-12-05T20:31:13.188Z,101435.28
2022-12-05T20:33:43.336Z,101443.75
2022-12-05T20:36:15.764Z,101443.63
2022-12-05T20:38:44.417Z,101442.47
2022-12-05T20:41:15.468Z,101445.91
2022-12-05T20:43:44.418Z,101448.50
2022-12-05T20:46:13.771Z,101445.81
2022-12-05T20:48:43.406Z,101453.41
2022-12-05T20:51:12.968Z,101445.22
2022-12-05T20:53:42.454Z,101452.91
2022-12-05T20:56:11.806Z,101447.34
2022-12-05T20:58:44.893Z,101445.94
2022-12-05T21:01:14.895Z,101443.28
2022-12-05T21:03:45.755Z,101439.28
2022-12-05T21:06:17.512Z,101434.66
2022-12-05T21:08:49.605Z,101436.13
2022-12-05T21:11:25.730Z,101432.50
2022-12-05T21:14:01.234Z,101438.47
2022-12-05T21:16:34.781Z,101441.69
2022-12-05T21:19:10.606Z,101435.81
2022-12-05T21:21:42.056Z,101436.38
2022-12-05T21:24:19.778Z,101431.63
2022-12-05T21:26:53.117Z,101442.84
2022-12-05T21:29:27.855Z,101452.19
2022-12-05T21:32:02.346Z,101440.09
2022-12-05T21:34:35.155Z,101439.63
2022-12-05T21:37:04.737Z,101440.56
2022-12-05T21:39:33.112Z,101441.59
2022-12-05T21:42:01.563Z,101440.56
2022-12-05T21:44:29.690Z,101442.28
2022-12-05T21:46:58.062Z,101444.00
2022-12-05T21:49:27.606Z,101445.44
2022-12-05T21:51:57.513Z,101458.41
2022-12-05T21:54:26.633Z,101458.03
2022-12-05T21:56:55.019Z,101460.41
2022-12-05T21:59:23.502Z,101466.16
2022-12-05T22:01:51.614Z,101468.44
2022-12-05T22:04:19.972Z,101473.41
2022-12-05T22:06:49.355Z,101472.06
2022-12-05T22:09:19.306Z,101463.84
2022-12-05T22:11:47.642Z,101474.03
2022-12-05T22:14:21.562Z,101473.56
2022-12-05T22:16:51.890Z,101472.97
2022-12-05T22:19:20.715Z,101483.09
2022-12-05T22:21:51.389Z,101483.25
2022-12-05T22:24:24.474Z,101476.72
2022-12-05T22:26:55.356Z,101482.66
2022-12-05T22:29:26.478Z,101483.41
2022-12-05T22:31:58.577Z,101487.25
2022-12-05T22:34:29.446Z,101476.72
2022-12-05T22:36:58.370Z,101468.38
2022-12-05T22:39:30.855Z,101472.00
2022-12-05T22:42:04.059Z,101465.53
2022-12-05T22:44:33.200Z,101479.19
2022-12-05T22:47:04.283Z,101474.63
2022-12-05T22:49:32.647Z,101476.44
2022-12-05T22:52:00.949Z,101462.97
2022-12-05T22:54:31.773Z,101469.59
2022-12-05T22:57:02.137Z,101462.72
2022-12-05T22:59:31.269Z,101475.50
2022-12-05T23:02:00.221Z,101473.97
2022-12-05T23:04:29.520Z,101476.16
2022-12-05T23:07:00.810Z,101474.91
2022-12-05T23:09:30.877Z,101470.53
2022-12-05T23:12:01.693Z,101475.09
2022-12-05T23:14:30.933Z,101477.22
2022-12-05T23:17:05.172Z,101479.78
2022-12-05T23:19:37.041Z,101480.81
2022-12-05T23:22:05.448Z,101483.00
2022-12-05T23:24:36.408Z,101473.97
2022-12-05T23:27:05.554Z,101488.00
2022-12-05T23:29:33.814Z,101492.28
2022-12-05T23:32:03.284Z,101492.84
2022-12-05T23:34:35.089Z,101493.53
2022-12-05T23:37:03.471Z,101501.06
2022-12-05T23:39:32.338Z,101494.59
2022-12-05T23:42:02.319Z,101501.47
2022-12-05T23:44:30.759Z,101508.34
2022-12-05T23:46:59.514Z,101494.78
2022-12-05T23:49:45.144Z,101500.78
2022-12-05T23:52:13.435Z,101496.47
2022-12-05T23:54:44.145Z,101502.69
2022-12-05T23:57:17.515Z,101496.13
2022-12-05T23:59:46.403Z,101492.97
